< < Back
Terminal Aerodrome Forecast


Current Version              Previous Versions:   1  2  3  4  5  6  7  8  9  

Terminal Aerodrome Forecast

670
FTUS44 KHUN 271147 CCA
TAFHSV
TAF COR
KHSV 271147Z 2712/2812 02007KT P6SM FEW035 BKN250
      TEMPO 2712/2713 5SM BR
     FM272300 04007KT P6SM BKN200 OVC250
     FM280900 06009KT P6SM BKN150 OVC200=



Latest METAR

615
SAUS80 KWBC 281000 RRB
MTRHSV
METAR KHSV 280953Z AUTO 00000KT 10SM CLR 07/04 A2992 RMK AO2 SLP130
T00720039


USA.gov is the U.S. government's official web portal to all federal, state and local government web resources and services.